Time;durP1;ratioP1;P1;durP2;ratioP2;P2;SDS_P1;SDS_P2;PMS_P1;PMS_P2;Temp;Humidity;BMP_temperature;BMP_pressure;BME280_temperature;BME280_humidity;BME280_pressure;Samples;Min_cycle;Max_cycle;Signal;HPM_P1;HPM_P2
2022/08/09 00:00:15;;;;;;;5.70;3.00;;;;;;;17.67;65.38;101493.89;84570;1332;24270;-71
2022/08/09 00:02:46;;;;;;;4.60;2.30;;;;;;;17.64;65.72;101493.02;84548;1332;22666;-71
2022/08/09 00:04:55;;;;;;;6.60;2.60;;;;;;;17.60;65.69;101493.55;84549;1328;22607;-71
2022/08/09 00:07:04;;;;;;;4.20;2.60;;;;;;;17.57;65.50;101497.77;84562;1331;22597;-68
2022/08/09 00:09:13;;;;;;;6.00;2.30;;;;;;;17.55;65.58;101498.39;84567;1332;24049;-70
2022/08/09 00:11:21;;;;;;;3.00;2.50;;;;;;;17.53;65.50;101499.88;84536;1332;22658;-70
2022/08/09 00:13:30;;;;;;;5.70;2.40;;;;;;;17.51;65.56;101499.98;84541;1333;22552;-71
2022/08/09 00:15:39;;;;;;;7.20;2.60;;;;;;;17.48;65.35;101500.48;84549;1331;22600;-70
2022/08/09 00:17:48;;;;;;;5.10;2.80;;;;;;;17.47;65.32;101498.91;84520;1332;22753;-71
2022/08/09 00:19:57;;;;;;;3.50;2.30;;;;;;;17.46;65.45;101500.44;84564;1333;22590;-71
2022/08/09 00:22:06;;;;;;;4.10;2.20;;;;;;;17.44;65.68;101501.59;84531;1331;25949;-70
2022/08/09 00:24:15;;;;;;;8.10;2.40;;;;;;;17.43;66.02;101501.11;84523;1332;23941;-70
2022/08/09 00:26:24;;;;;;;6.70;3.00;;;;;;;17.39;66.37;101499.17;84572;1332;25456;-71
2022/08/09 00:28:33;;;;;;;5.20;2.50;;;;;;;17.35;66.64;101499.52;84542;1332;25411;-69
2022/08/09 00:30:42;;;;;;;7.90;3.50;;;;;;;17.30;66.96;101496.59;84559;1332;22913;-70
2022/08/09 00:32:51;;;;;;;4.40;2.90;;;;;;;17.24;67.13;101496.33;84596;1333;22597;-71
2022/08/09 00:35:00;;;;;;;5.80;3.20;;;;;;;17.20;67.33;101497.63;84567;1331;25339;-71
2022/08/09 00:37:09;;;;;;;6.20;3.00;;;;;;;17.14;67.39;101501.21;84586;1332;23115;-71
2022/08/09 00:39:18;;;;;;;7.90;3.30;;;;;;;17.11;67.66;101498.21;84611;1331;23956;-70
2022/08/09 00:41:26;;;;;;;;;;;;;;;17.07;67.69;101498.77;84605;1333;23943;-69
2022/08/09 00:43:36;;;;;;;4.60;3.10;;;;;;;17.00;68.08;101500.66;84604;1332;22599;-71
2022/08/09 00:45:46;;;;;;;12.50;3.30;;;;;;;16.95;68.11;101502.30;84617;1330;22712;-69
2022/08/09 00:47:54;;;;;;;5.50;3.20;;;;;;;16.91;68.20;101501.61;84572;1331;22694;-70
2022/08/09 00:50:03;;;;;;;7.30;3.60;;;;;;;16.86;68.32;101503.25;84585;1330;22599;-68
2022/08/09 00:52:12;;;;;;;7.70;3.40;;;;;;;16.83;68.42;101507.48;84577;1330;25325;-71
2022/08/09 00:54:21;;;;;;;7.80;3.60;;;;;;;16.80;68.65;101508.33;84562;1331;22579;-70
2022/08/09 00:56:30;;;;;;;6.20;3.70;;;;;;;16.73;68.85;101510.54;84559;1330;24260;-71
2022/08/09 00:58:39;;;;;;;5.70;3.70;;;;;;;16.65;69.12;101511.41;84585;1331;22615;-71
2022/08/09 01:00:48;;;;;;;10.30;3.20;;;;;;;16.59;69.24;101509.74;84549;1327;24255;-70
2022/08/09 01:03:06;;;;;;;6.20;3.50;;;;;;;16.55;69.69;101509.92;84521;1331;22787;-71
2022/08/09 01:05:20;;;;;;;3.70;2.60;;;;;;;16.50;70.01;101505.93;84541;1330;22838;-71
2022/08/09 01:07:34;;;;;;;6.70;3.20;;;;;;;16.47;70.35;101506.41;84558;1331;23970;-72
2022/08/09 01:09:45;;;;;;;6.00;3.30;;;;;;;16.44;70.61;101510.23;84550;1333;22697;-71
2022/08/09 01:12:12;;;;;;;7.20;3.50;;;;;;;16.42;70.88;101507.88;84552;1327;22586;-69
2022/08/09 01:14:27;;;;;;;4.60;3.10;;;;;;;16.38;71.03;101502.93;84529;1332;25620;-70
2022/08/09 01:16:39;;;;;;;6.60;3.20;;;;;;;16.35;71.22;101505.86;84586;1333;22603;-70
2022/08/09 01:18:49;;;;;;;8.30;3.40;;;;;;;16.32;71.43;101507.94;84571;1331;24131;-70
2022/08/09 01:21:04;;;;;;;5.40;3.30;;;;;;;16.30;71.57;101509.98;84593;1332;22574;-70
2022/08/09 01:23:20;;;;;;;6.10;3.60;;;;;;;16.28;71.71;101506.89;84586;1333;22586;-68
2022/08/09 01:25:57;;;;;;;7.30;3.20;;;;;;;16.27;71.91;101509.77;84578;1333;25312;-71
2022/08/09 01:28:06;;;;;;;7.40;3.30;;;;;;;16.23;72.16;101508.86;84638;1333;24132;-71
2022/08/09 01:30:15;;;;;;;5.90;3.00;;;;;;;16.21;72.35;101511.08;84610;1330;22846;-70
2022/08/09 01:32:24;;;;;;;8.40;4.70;;;;;;;16.19;72.63;101507.42;84632;1331;22838;-71
2022/08/09 01:34:33;;;;;;;5.40;4.10;;;;;;;16.18;72.62;101512.42;84595;1332;22725;-71
2022/08/09 01:36:42;;;;;;;9.20;4.40;;;;;;;16.16;72.98;101510.39;84595;1335;26043;-72
2022/08/09 01:38:52;;;;;;;4.20;3.30;;;;;;;16.16;73.13;101507.25;84602;1334;22566;-69
2022/08/09 01:41:05;;;;;;;5.60;4.00;;;;;;;16.14;73.34;101507.16;84592;1331;22540;-70
2022/08/09 01:43:15;;;;;;;4.80;3.40;;;;;;;16.11;73.43;101510.44;84570;1330;22686;-68
2022/08/09 01:45:26;;;;;;;9.20;3.90;;;;;;;16.11;73.70;101512.20;84560;1331;22649;-70
2022/08/09 01:47:35;;;;;;;6.30;3.30;;;;;;;16.10;73.94;101515.75;84581;1323;23126;-69
2022/08/09 01:49:46;;;;;;;6.50;3.60;;;;;;;16.10;73.96;101517.52;84579;1330;24528;-70
2022/08/09 01:51:59;;;;;;;8.30;3.30;;;;;;;16.10;73.93;101516.47;84605;1333;22662;-71
2022/08/09 01:54:07;;;;;;;7.80;3.30;;;;;;;16.09;74.08;101518.24;84569;1331;22580;-71
2022/08/09 01:56:16;;;;;;;7.80;3.90;;;;;;;16.10;74.38;101515.76;84624;1331;22694;-72
2022/08/09 01:58:25;;;;;;;6.10;3.10;;;;;;;16.11;74.52;101514.86;84562;1330;22564;-70
2022/08/09 02:00:34;;;;;;;9.30;3.00;;;;;;;16.11;74.75;101517.31;84541;1331;23831;-71
2022/08/09 02:02:46;;;;;;;7.10;3.00;;;;;;;16.09;74.79;101516.85;84516;1332;25278;-71
2022/08/09 02:04:54;;;;;;;6.00;3.50;;;;;;;16.09;74.95;101518.26;84527;1335;23729;-69
2022/08/09 02:07:10;;;;;;;4.40;2.70;;;;;;;16.10;75.05;101520.52;84563;1332;22600;-70
2022/08/09 02:09:19;;;;;;;5.80;3.00;;;;;;;16.08;75.30;101519.73;84563;1332;22596;-70
2022/08/09 02:11:29;;;;;;;8.50;3.10;;;;;;;16.07;75.48;101522.39;84559;1332;22633;-70
2022/08/09 02:13:38;;;;;;;3.70;3.00;;;;;;;16.09;75.51;101519.52;84552;1332;22666;-72
2022/08/09 02:15:50;;;;;;;6.30;2.90;;;;;;;16.07;75.57;101518.35;84576;1332;25530;-71
2022/08/09 02:17:58;;;;;;;5.70;2.40;;;;;;;16.08;75.46;101523.44;84566;1333;24440;-71
2022/08/09 02:20:09;;;;;;;4.50;2.60;;;;;;;16.08;75.66;101523.98;84510;1333;22661;-71
2022/08/09 02:22:23;;;;;;;4.30;3.00;;;;;;;16.09;75.65;101523.92;84529;1332;25431;-70
2022/08/09 02:24:34;;;;;;;7.20;2.60;;;;;;;16.10;75.79;101528.45;84578;1328;22651;-70
2022/08/09 02:26:43;;;;;;;4.60;3.00;;;;;;;16.10;75.91;101525.99;84568;1332;22629;-70
2022/08/09 02:28:55;;;;;;;7.40;2.70;;;;;;;16.08;75.87;101527.49;84554;1332;22633;-71
2022/08/09 02:31:05;;;;;;;7.10;3.30;;;;;;;16.09;76.04;101524.80;84564;1332;24257;-72
2022/08/09 02:33:18;;;;;;;5.70;2.70;;;;;;;16.07;76.10;101521.17;84538;1332;22840;-71
2022/08/09 02:35:28;;;;;;;4.50;3.10;;;;;;;16.06;76.08;101523.52;84537;1332;24093;-71
2022/08/09 02:37:37;;;;;;;3.40;2.40;;;;;;;16.06;76.30;101525.27;84524;1332;24035;-71
2022/08/09 02:39:49;;;;;;;4.30;3.00;;;;;;;16.07;76.31;101527.36;84520;1331;24283;-71
2022/08/09 02:42:01;;;;;;;3.20;2.60;;;;;;;16.07;76.47;101527.35;84549;1332;25522;-71
2022/08/09 02:44:15;;;;;;;6.80;3.10;;;;;;;16.07;76.51;101525.94;84525;1332;22602;-71
2022/08/09 02:46:24;;;;;;;9.10;2.70;;;;;;;16.08;76.44;101526.95;84551;1332;22630;-69
2022/08/09 02:48:33;;;;;;;9.00;2.90;;;;;;;16.08;76.34;101532.23;84528;1331;22600;-71
2022/08/09 02:50:43;;;;;;;7.20;3.70;;;;;;;16.08;76.32;101528.53;84532;1332;24632;-69
2022/08/09 02:52:55;;;;;;;7.00;2.90;;;;;;;16.07;76.26;101532.63;84519;1331;22852;-70
2022/08/09 02:55:04;;;;;;;9.50;3.90;;;;;;;16.06;76.55;101533.03;84534;1332;22594;-71
2022/08/09 02:57:13;;;;;;;4.40;3.20;;;;;;;16.04;76.57;101537.14;84571;1332;22655;-69
2022/08/09 02:59:23;;;;;;;6.00;2.60;;;;;;;16.04;76.70;101536.42;84528;1332;25557;-71
2022/08/09 03:01:31;;;;;;;3.90;2.60;;;;;;;16.06;76.80;101537.42;84536;1333;22606;-69
2022/08/09 03:03:40;;;;;;;4.60;2.70;;;;;;;16.06;76.79;101536.54;84546;1333;22699;-71
2022/08/09 03:05:49;;;;;;;6.50;2.60;;;;;;;16.05;76.91;101538.84;84567;1330;24325;-69
2022/08/09 03:07:58;;;;;;;3.80;2.70;;;;;;;16.05;77.02;101537.44;84578;1328;22762;-71
2022/08/09 03:10:10;;;;;;;7.90;3.20;;;;;;;16.07;77.18;101541.44;84508;1332;24180;-71
2022/08/09 03:12:19;;;;;;;6.40;3.30;;;;;;;16.07;77.01;101540.37;84551;1332;22747;-71
2022/08/09 03:14:30;;;;;;;6.30;2.80;;;;;;;16.06;77.03;101541.46;84546;1332;25533;-71
2022/08/09 03:16:39;;;;;;;5.20;2.50;;;;;;;16.08;77.23;101546.14;84591;1332;25505;-71
2022/08/09 03:18:48;;;;;;;6.70;3.50;;;;;;;16.09;77.29;101546.42;84535;1332;22933;-71
2022/08/09 03:20:57;;;;;;;4.60;2.50;;;;;;;16.10;77.00;101545.16;84550;1332;24049;-70
2022/08/09 03:23:07;;;;;;;3.10;2.60;;;;;;;16.11;77.21;101540.05;84505;1333;22626;-70
2022/08/09 03:25:15;;;;;;;3.50;2.80;;;;;;;16.12;77.20;101539.45;84518;1332;22606;-67
2022/08/09 03:27:24;;;;;;;3.80;2.90;;;;;;;16.11;77.06;101535.10;84516;1335;22854;-70
2022/08/09 03:29:33;;;;;;;5.40;3.30;;;;;;;16.09;77.22;101538.01;84486;1332;22708;-71
2022/08/09 03:31:42;;;;;;;4.50;2.70;;;;;;;16.10;77.32;101537.23;84517;1332;22696;-69
2022/08/09 03:33:51;;;;;;;5.80;3.00;;;;;;;16.11;77.22;101536.84;84513;1333;22610;-68
2022/08/09 03:36:01;;;;;;;6.90;3.10;;;;;;;16.11;77.20;101534.75;84518;1325;22611;-69
2022/08/09 03:38:09;;;;;;;6.10;2.60;;;;;;;16.11;77.32;101534.90;84504;1327;22732;-70
2022/08/09 03:40:18;;;;;;;6.80;3.10;;;;;;;16.12;77.33;101534.36;84501;1330;23067;-70
2022/08/09 03:42:28;;;;;;;3.70;2.90;;;;;;;16.12;77.33;101538.58;84538;1333;22619;-71
2022/08/09 03:44:37;;;;;;;8.40;3.20;;;;;;;16.12;77.45;101535.38;84533;1333;22588;-69
2022/08/09 03:46:46;;;;;;;8.70;3.20;;;;;;;16.12;77.58;101536.30;84592;1332;22582;-70
2022/08/09 03:48:58;;;;;;;10.00;3.10;;;;;;;16.11;77.82;101536.52;84536;1333;26836;-71
2022/08/09 03:51:08;;;;;;;5.30;3.10;;;;;;;16.11;77.92;101534.05;84528;1332;22606;-71
2022/08/09 03:53:17;;;;;;;6.70;3.50;;;;;;;16.12;78.02;101538.39;84532;1332;22606;-68
2022/08/09 03:55:26;;;;;;;4.10;3.00;;;;;;;16.13;77.97;101537.83;84563;1331;24317;-70
2022/08/09 03:57:35;;;;;;;5.10;3.10;;;;;;;16.16;78.07;101539.64;84518;1332;22556;-69
2022/08/09 03:59:44;;;;;;;5.90;2.90;;;;;;;16.18;78.18;101541.67;84572;1331;22592;-70
2022/08/09 04:01:54;;;;;;;4.90;3.20;;;;;;;16.18;78.11;101544.45;84526;1326;22602;-68
2022/08/09 04:04:03;;;;;;;6.70;3.30;;;;;;;16.19;78.06;101547.77;84518;1332;22796;-70
2022/08/09 04:06:14;;;;;;;10.40;3.10;;;;;;;16.20;78.01;101550.37;84516;1323;22583;-71
2022/08/09 04:08:23;;;;;;;7.20;3.50;;;;;;;16.23;78.27;101553.25;84540;1328;22689;-71
2022/08/09 04:10:32;;;;;;;8.40;3.90;;;;;;;16.24;78.15;101555.13;84493;1332;25455;-70
2022/08/09 04:12:46;;;;;;;8.70;3.70;;;;;;;16.24;78.16;101551.77;84517;1333;22784;-68
2022/08/09 04:14:55;;;;;;;7.40;3.50;;;;;;;16.26;78.41;101552.41;84514;1333;22622;-71
2022/08/09 04:17:04;;;;;;;5.90;3.40;;;;;;;16.28;78.26;101554.10;84519;1336;22618;-71
2022/08/09 04:19:13;;;;;;;7.00;3.80;;;;;;;16.31;78.35;101553.80;84510;1332;22841;-69
2022/08/09 04:21:22;;;;;;;11.00;3.90;;;;;;;16.33;78.43;101556.50;84476;1332;23990;-70
2022/08/09 04:23:31;;;;;;;12.20;3.70;;;;;;;16.35;78.30;101555.89;84518;1332;24299;-71
2022/08/09 04:25:39;;;;;;;8.20;3.80;;;;;;;16.37;78.43;101556.16;84482;1332;25606;-69
2022/08/09 04:27:49;;;;;;;6.80;3.60;;;;;;;16.40;78.32;101558.85;84514;1332;24264;-70
2022/08/09 04:29:57;;;;;;;10.70;4.40;;;;;;;16.42;77.98;101559.27;84519;1332;22604;-71
2022/08/09 04:32:07;;;;;;;10.60;3.70;;;;;;;16.44;77.53;101554.77;84513;1328;22616;-71
2022/08/09 04:34:15;;;;;;;17.50;4.70;;;;;;;16.47;77.16;101551.14;84520;1332;23019;-70
2022/08/09 04:36:26;;;;;;;8.20;4.10;;;;;;;16.52;76.76;101552.86;84540;1333;23999;-71
2022/08/09 04:38:34;;;;;;;10.60;3.80;;;;;;;16.55;76.43;101553.79;84517;1333;22592;-69
2022/08/09 04:40:49;;;;;;;6.30;4.50;;;;;;;16.58;76.05;101558.44;84517;1332;24110;-69
2022/08/09 04:42:58;;;;;;;12.40;5.40;;;;;;;16.60;75.93;101558.66;84521;1332;22677;-71
2022/08/09 04:45:09;;;;;;;11.30;5.00;;;;;;;16.63;75.73;101561.71;84574;1332;22817;-70
2022/08/09 04:47:18;;;;;;;11.60;5.70;;;;;;;16.63;75.58;101561.69;84537;1332;24172;-70
2022/08/09 04:49:31;;;;;;;9.80;4.30;;;;;;;16.65;75.55;101562.33;84523;1329;25458;-70
2022/08/09 04:51:40;;;;;;;13.10;5.10;;;;;;;16.68;75.51;101564.11;84498;1330;22613;-70
2022/08/09 04:53:49;;;;;;;5.30;3.20;;;;;;;16.72;75.09;101562.20;84486;1332;22593;-70
2022/08/09 04:55:58;;;;;;;9.60;4.20;;;;;;;16.78;74.91;101563.55;84490;1332;24304;-70
2022/08/09 04:58:07;;;;;;;8.30;4.40;;;;;;;16.84;74.49;101564.32;84078;1332;609035;-71
2022/08/09 05:00:18;;;;;;;12.40;5.10;;;;;;;16.90;74.25;101566.89;84508;1332;22577;-71
2022/08/09 05:02:28;;;;;;;10.20;4.30;;;;;;;16.96;73.95;101569.95;84505;1333;23894;-71
2022/08/09 05:04:37;;;;;;;6.70;4.30;;;;;;;17.03;73.84;101570.69;84498;1332;22645;-70
2022/08/09 05:06:49;;;;;;;16.80;5.60;;;;;;;17.09;73.62;101569.02;84531;1332;22627;-68
2022/08/09 05:08:58;;;;;;;13.90;5.50;;;;;;;17.15;73.27;101569.63;84497;1332;25373;-70
2022/08/09 05:11:07;;;;;;;19.20;8.40;;;;;;;17.20;73.07;101570.63;84482;1332;22613;-70
2022/08/09 05:13:16;;;;;;;16.10;6.90;;;;;;;17.25;72.82;101575.65;84529;1332;22611;-71
2022/08/09 05:15:27;;;;;;;14.90;6.30;;;;;;;17.32;72.64;101575.69;84496;1331;22602;-70
2022/08/09 05:17:36;;;;;;;10.60;4.30;;;;;;;17.39;72.22;101574.15;84519;1332;25441;-69
2022/08/09 05:19:46;;;;;;;12.80;4.50;;;;;;;17.44;72.05;101579.34;84546;1332;22786;-71
2022/08/09 05:21:54;;;;;;;10.80;4.40;;;;;;;17.50;71.78;101579.79;84565;1332;22618;-71
2022/08/09 05:24:05;;;;;;;9.40;2.90;;;;;;;17.55;71.56;101581.11;84543;1328;22816;-71
2022/08/09 05:26:14;;;;;;;6.90;3.90;;;;;;;17.60;71.49;101579.66;84577;1332;22967;-71
2022/08/09 05:28:25;;;;;;;9.70;3.50;;;;;;;17.65;71.11;101584.55;84555;1332;23993;-70
2022/08/09 05:30:36;;;;;;;7.50;2.90;;;;;;;17.70;70.76;101581.99;84563;1329;24804;-70
2022/08/09 05:32:45;;;;;;;3.60;2.70;;;;;;;17.76;70.46;101583.48;84550;1331;24242;-70
2022/08/09 05:34:54;;;;;;;4.50;3.10;;;;;;;17.82;70.20;101586.02;84560;1332;22600;-70
2022/08/09 05:37:04;;;;;;;8.10;3.70;;;;;;;17.87;69.88;101585.79;84568;1332;24099;-69
2022/08/09 05:39:14;;;;;;;7.50;3.40;;;;;;;17.91;69.76;101587.71;84550;1332;25307;-71
2022/08/09 05:41:22;;;;;;;4.70;2.80;;;;;;;17.96;69.63;101590.98;84579;1332;22603;-72
2022/08/09 05:43:34;;;;;;;9.00;3.30;;;;;;;18.00;69.74;101587.95;84527;1332;22597;-71
2022/08/09 05:45:42;;;;;;;7.70;3.80;;;;;;;18.06;69.60;101588.73;84562;1329;24244;-69
2022/08/09 05:47:51;;;;;;;8.90;4.40;;;;;;;18.12;69.50;101586.67;84493;1332;24983;-70
2022/08/09 05:50:01;;;;;;;8.80;3.40;;;;;;;18.16;69.25;101589.63;84522;1332;22615;-69
2022/08/09 05:52:12;;;;;;;12.60;4.30;;;;;;;18.17;68.84;101586.07;84502;1332;25366;-69
2022/08/09 05:54:23;;;;;;;7.80;4.80;;;;;;;18.19;68.70;101588.27;84492;1332;22747;-68
2022/08/09 05:56:37;;;;;;;10.80;4.50;;;;;;;18.21;68.54;101590.05;84541;1333;22744;-69
2022/08/09 05:58:48;;;;;;;8.00;4.20;;;;;;;18.25;68.61;101586.20;84500;1332;24303;-70
2022/08/09 06:00:56;;;;;;;11.70;5.40;;;;;;;18.28;68.51;101589.58;84544;1332;22623;-68
2022/08/09 06:03:09;;;;;;;8.90;5.20;;;;;;;18.28;68.03;101593.45;84525;1332;22634;-68
2022/08/09 06:05:22;;;;;;;11.20;5.60;;;;;;;18.30;68.01;101593.36;84515;1331;22600;-70
2022/08/09 06:07:31;;;;;;;15.40;5.00;;;;;;;18.30;67.83;101596.35;84567;1333;25088;-70
2022/08/09 06:09:40;;;;;;;10.90;5.10;;;;;;;18.31;67.91;101596.65;84526;1333;25516;-70
2022/08/09 06:11:51;;;;;;;14.00;5.30;;;;;;;18.35;67.90;101596.27;84533;1332;22552;-70
2022/08/09 06:14:02;;;;;;;12.30;5.70;;;;;;;18.39;67.83;101597.86;84551;1332;22647;-67
2022/08/09 06:16:18;;;;;;;19.80;5.50;;;;;;;18.41;67.63;101599.50;84542;1332;22735;-68
2022/08/09 06:18:29;;;;;;;11.10;5.00;;;;;;;18.44;67.59;101598.29;84541;1332;22588;-69
2022/08/09 06:20:41;;;;;;;13.60;5.10;;;;;;;18.47;67.53;101599.52;84563;1332;22656;-67
2022/08/09 06:22:50;;;;;;;12.90;5.60;;;;;;;18.51;67.43;101601.28;84564;1332;22597;-67
2022/08/09 06:24:59;;;;;;;19.00;6.30;;;;;;;18.54;67.43;101601.66;84522;1333;22673;-69
2022/08/09 06:27:09;;;;;;;10.60;4.50;;;;;;;18.57;67.15;101601.52;84536;1332;22584;-70
2022/08/09 06:29:19;;;;;;;13.80;5.60;;;;;;;18.61;67.10;101599.88;84585;1330;23061;-71
2022/08/09 06:31:29;;;;;;;11.00;5.70;;;;;;;18.64;67.03;101599.72;84528;1326;22888;-69
2022/08/09 06:33:40;;;;;;;14.50;5.30;;;;;;;18.69;66.93;101603.02;84505;1332;22814;-69
2022/08/09 06:35:49;;;;;;;11.70;4.80;;;;;;;18.75;66.99;101598.27;84509;1332;23931;-68
2022/08/09 06:37:59;;;;;;;12.20;4.90;;;;;;;18.81;66.66;101600.10;84494;1332;25446;-70
2022/08/09 06:40:10;;;;;;;9.90;4.00;;;;;;;18.89;66.81;101603.73;84525;1332;24307;-69
2022/08/09 06:42:24;;;;;;;9.60;4.40;;;;;;;18.98;66.58;101601.00;84460;1332;24266;-67
2022/08/09 06:44:36;;;;;;;12.90;4.70;;;;;;;19.04;66.18;101602.26;84507;1330;22614;-71
2022/08/09 06:46:46;;;;;;;12.60;4.50;;;;;;;19.09;65.98;101602.70;84515;1325;22605;-69
2022/08/09 06:48:56;;;;;;;7.90;4.70;;;;;;;19.16;65.94;101602.09;84530;1331;22603;-68
2022/08/09 06:51:09;;;;;;;8.60;4.80;;;;;;;19.26;65.85;101605.27;84513;1333;22718;-68
2022/08/09 06:53:18;;;;;;;16.40;4.80;;;;;;;19.35;65.77;101608.66;84511;1330;22623;-69
2022/08/09 06:55:30;;;;;;;27.90;6.30;;;;;;;19.44;65.49;101609.94;84488;1332;22616;-69
2022/08/09 06:57:41;;;;;;;21.00;5.60;;;;;;;19.50;65.32;101611.02;84528;1332;23935;-69
2022/08/09 06:59:52;;;;;;;21.80;5.30;;;;;;;19.59;65.60;101610.02;84528;1333;22749;-68
2022/08/09 07:02:03;;;;;;;9.80;4.70;;;;;;;19.69;65.39;101610.56;84554;1335;24253;-70
2022/08/09 07:04:13;;;;;;;17.30;4.50;;;;;;;19.77;64.87;101610.77;84504;1332;25465;-67
2022/08/09 07:06:23;;;;;;;;;;;;;;;19.85;64.33;101613.51;84579;1332;22707;-68
2022/08/09 07:08:32;;;;;;;;;;;;;;;19.90;64.16;101608.09;84587;1332;22763;-69
2022/08/09 07:10:45;;;;;;;10.90;4.90;;;;;;;19.93;64.38;101607.03;84507;1333;22611;-68
2022/08/09 07:12:55;;;;;;;32.70;6.60;;;;;;;19.96;64.33;101612.33;84555;1333;25453;-70
2022/08/09 07:15:05;;;;;;;28.70;5.10;;;;;;;20.04;64.27;101611.73;84531;1332;22614;-70
2022/08/09 07:17:14;;;;;;;41.30;7.70;;;;;;;20.13;63.85;101610.69;84563;1332;22647;-69
2022/08/09 07:19:23;;;;;;;31.30;5.80;;;;;;;20.18;63.19;101611.94;84540;1332;22563;-71
2022/08/09 07:21:32;;;;;;;20.30;5.10;;;;;;;20.23;63.08;101615.20;84525;1336;25580;-70
2022/08/09 07:23:41;;;;;;;12.70;4.50;;;;;;;20.30;63.21;101616.20;84508;1332;22893;-67
2022/08/09 07:25:50;;;;;;;13.40;4.60;;;;;;;20.41;63.41;101617.71;84509;1332;22591;-69
2022/08/09 07:27:59;;;;;;;11.40;4.70;;;;;;;20.51;63.13;101620.11;84515;1332;22560;-70
2022/08/09 07:30:12;;;;;;;20.00;6.30;;;;;;;20.67;63.31;101624.16;84499;1332;25478;-67
2022/08/09 07:32:26;;;;;;;10.90;5.20;;;;;;;20.85;62.20;101623.59;84543;1328;22590;-68
2022/08/09 07:34:35;;;;;;;16.60;6.50;;;;;;;20.97;61.71;101625.82;84480;1333;22885;-69
2022/08/09 07:36:47;;;;;;;14.40;4.70;;;;;;;21.10;61.73;101627.72;84536;1332;22624;-69
2022/08/09 07:38:58;;;;;;;9.30;3.90;;;;;;;21.22;61.03;101629.63;84478;1332;22602;-70
2022/08/09 07:41:07;;;;;;;7.00;4.00;;;;;;;21.33;60.82;101631.61;84487;1332;22592;-67
2022/08/09 07:43:16;;;;;;;8.00;3.10;;;;;;;21.47;60.73;101628.96;84483;1332;22616;-68
2022/08/09 07:45:27;;;;;;;11.40;5.20;;;;;;;21.65;60.20;101630.29;84500;1332;22590;-70
2022/08/09 07:47:41;;;;;;;16.90;5.00;;;;;;;21.81;59.42;101629.61;84513;1332;25274;-70
2022/08/09 07:49:49;;;;;;;8.10;4.50;;;;;;;21.89;58.33;101631.04;84501;1332;25432;-69
2022/08/09 07:52:01;;;;;;;7.40;3.60;;;;;;;21.94;57.71;101630.73;84532;1332;22620;-70
2022/08/09 07:54:10;;;;;;;6.70;3.40;;;;;;;21.95;57.48;101631.02;84531;1333;22603;-70
2022/08/09 07:56:19;;;;;;;15.70;3.60;;;;;;;21.94;57.24;101632.65;84527;1335;22591;-70
2022/08/09 07:58:28;;;;;;;7.80;2.80;;;;;;;21.97;58.15;101634.61;84536;1333;22551;-71
2022/08/09 08:00:37;;;;;;;7.40;3.60;;;;;;;22.07;58.14;101636.08;84553;1333;26069;-69
2022/08/09 08:02:46;;;;;;;6.80;2.20;;;;;;;22.12;57.97;101637.90;84512;1332;24281;-68
2022/08/09 08:04:56;;;;;;;4.30;2.60;;;;;;;22.18;58.12;101639.82;84516;1332;23984;-68
2022/08/09 08:07:06;;;;;;;12.40;3.40;;;;;;;22.22;57.73;101640.13;84511;1332;25462;-70
2022/08/09 08:09:16;;;;;;;4.40;2.20;;;;;;;22.26;57.54;101639.41;84501;1332;23925;-69
2022/08/09 08:11:26;;;;;;;5.40;3.40;;;;;;;22.35;57.97;101640.09;84536;1332;22618;-68
2022/08/09 08:13:36;;;;;;;8.70;2.70;;;;;;;22.44;57.42;101637.52;84516;1334;22728;-68
2022/08/09 08:15:50;;;;;;;9.10;3.00;;;;;;;22.47;57.21;101638.02;84519;1330;22753;-68
2022/08/09 08:18:02;;;;;;;3.90;2.30;;;;;;;22.51;57.02;101640.09;84487;1333;23467;-67
2022/08/09 08:20:13;;;;;;;5.30;2.20;;;;;;;22.54;56.55;101642.16;84458;1333;22617;-67
2022/08/09 08:22:27;;;;;;;4.90;2.60;;;;;;;22.57;54.86;101641.96;84510;1336;22733;-69
2022/08/09 08:24:36;;;;;;;4.80;2.20;;;;;;;22.57;55.14;101642.48;84485;1332;24213;-70
2022/08/09 08:26:47;;;;;;;2.50;2.10;;;;;;;22.61;55.31;101644.85;84509;1336;22596;-70
2022/08/09 08:28:57;;;;;;;6.40;2.50;;;;;;;22.73;55.51;101645.17;84506;1334;22784;-67
2022/08/09 08:31:09;;;;;;;5.30;3.00;;;;;;;22.80;54.93;101645.17;84470;1332;23936;-68
2022/08/09 08:33:20;;;;;;;5.60;2.40;;;;;;;22.84;54.64;101646.66;84480;1332;24275;-69
2022/08/09 08:35:32;;;;;;;3.70;2.50;;;;;;;22.96;54.43;101643.59;84505;1333;25310;-68
2022/08/09 08:37:44;;;;;;;8.30;2.40;;;;;;;23.13;54.78;101642.71;84477;1332;25449;-68
2022/08/09 08:39:55;;;;;;;4.80;2.60;;;;;;;23.29;53.99;101641.58;84523;1333;22830;-68
2022/08/09 08:42:08;;;;;;;5.80;2.30;;;;;;;23.45;52.97;101644.58;84483;1334;22702;-68
2022/08/09 08:44:18;;;;;;;9.20;3.90;;;;;;;23.55;51.92;101644.88;84521;1333;24232;-69
2022/08/09 08:46:34;;;;;;;3.20;2.40;;;;;;;23.62;51.99;101642.75;84500;1332;25443;-70
2022/08/09 08:48:45;;;;;;;11.40;2.70;;;;;;;23.74;51.81;101642.27;84522;1335;22627;-70
2022/08/09 08:50:54;;;;;;;6.90;2.80;;;;;;;23.87;51.66;101643.27;84540;1333;24020;-69
2022/08/09 08:53:03;;;;;;;4.50;2.60;;;;;;;24.02;51.17;101636.86;84481;1333;22650;-69
2022/08/09 08:55:18;;;;;;;7.00;2.30;;;;;;;24.11;50.72;101642.40;84501;1333;22593;-68
2022/08/09 08:57:28;;;;;;;4.40;2.50;;;;;;;24.22;50.54;101639.80;84519;1332;26577;-69
2022/08/09 08:59:37;;;;;;;4.00;2.00;;;;;;;24.24;49.73;101635.55;84509;1335;23053;-69
2022/08/09 09:01:49;;;;;;;7.00;2.40;;;;;;;24.19;49.99;101637.35;84537;1335;22873;-70
2022/08/09 09:03:59;;;;;;;4.70;2.90;;;;;;;24.19;50.40;101639.09;84469;1332;22592;-68
2022/08/09 09:06:11;;;;;;;5.70;2.60;;;;;;;24.23;50.00;101639.89;84518;1334;25320;-70
2022/08/09 09:08:27;;;;;;;4.10;2.30;;;;;;;24.23;50.15;101637.77;84503;1336;22610;-70
2022/08/09 09:10:38;;;;;;;4.70;1.80;;;;;;;24.24;49.96;101638.04;84538;1333;24113;-70
2022/08/09 09:12:49;;;;;;;4.60;2.00;;;;;;;24.33;50.17;101638.27;84489;1332;22629;-71
2022/08/09 09:14:59;;;;;;;8.60;2.50;;;;;;;24.48;49.94;101637.48;84487;1332;22594;-70
2022/08/09 09:17:08;;;;;;;5.20;2.80;;;;;;;24.59;49.68;101634.69;84485;1336;25279;-69
2022/08/09 09:19:17;;;;;;;3.90;2.70;;;;;;;24.63;49.58;101631.85;84539;1333;24116;-69
2022/08/09 09:21:29;;;;;;;2.80;2.00;;;;;;;24.74;49.48;101635.14;84556;1333;23864;-68
2022/08/09 09:23:48;;;;;;;8.20;2.30;;;;;;;24.84;48.57;101635.93;84514;1332;25307;-69
2022/08/09 09:25:57;;;;;;;3.30;1.90;;;;;;;24.88;47.67;101634.15;84499;1333;22632;-69
2022/08/09 09:28:08;;;;;;;1.80;1.70;;;;;;;24.89;48.62;101634.84;84535;1336;24161;-69
2022/08/09 09:30:22;;;;;;;2.90;2.00;;;;;;;25.00;46.70;101629.52;84548;1336;22687;-68
2022/08/09 09:32:35;;;;;;;3.00;1.30;;;;;;;25.10;46.41;101630.02;84537;1335;24102;-71
2022/08/09 09:34:44;;;;;;;3.80;1.70;;;;;;;25.16;45.75;101632.39;84510;1333;22609;-71
2022/08/09 09:36:53;;;;;;;3.40;2.00;;;;;;;25.19;45.88;101632.33;84489;1336;22706;-68
2022/08/09 09:39:07;;;;;;;5.40;1.90;;;;;;;25.24;46.29;101629.09;84526;1334;23976;-69
2022/08/09 09:41:31;;;;;;;2.60;1.70;;;;;;;25.31;47.15;101629.23;84486;1332;22881;-70
2022/08/09 09:43:40;;;;;;;2.70;2.10;;;;;;;25.39;45.86;101628.52;84498;1335;22620;-70
2022/08/09 09:45:57;;;;;;;3.40;1.80;;;;;;;25.41;45.27;101633.38;84529;1332;23842;-69
2022/08/09 09:48:10;;;;;;;6.60;2.40;;;;;;;25.41;45.37;101630.20;84532;1335;22644;-68
2022/08/09 09:50:21;;;;;;;3.00;1.70;;;;;;;25.39;45.30;101628.22;84509;1335;24064;-67
2022/08/09 09:52:32;;;;;;;4.80;1.60;;;;;;;25.43;46.08;101632.02;84498;1333;22670;-68
2022/08/09 09:54:45;;;;;;;2.40;1.80;;;;;;;25.44;45.13;101630.14;84511;1335;25272;-67
2022/08/09 09:57:10;;;;;;;4.70;1.90;;;;;;;25.46;45.84;101630.30;84542;1335;24257;-69
2022/08/09 09:59:33;;;;;;;4.10;1.70;;;;;;;25.54;45.16;101629.35;84472;1330;25353;-69
2022/08/09 10:01:43;;;;;;;3.80;1.40;;;;;;;25.54;44.20;101630.34;84462;1336;25268;-71
2022/08/09 10:03:52;;;;;;;1.80;1.70;;;;;;;25.50;43.48;101630.54;84509;1335;22586;-70
2022/08/09 10:06:01;;;;;;;;;;;;;;;25.48;43.38;101630.16;84522;1336;22695;-68